createdAt,value
2018-06-21T00:00:49.509Z,18.80
2018-06-21T00:03:17.807Z,18.60
2018-06-21T00:05:45.334Z,18.60
2018-06-21T00:08:13.659Z,18.60
2018-06-21T00:10:41.375Z,18.60
2018-06-21T00:13:08.897Z,18.60
2018-06-21T00:15:36.413Z,18.60
2018-06-21T00:18:05.550Z,18.50
2018-06-21T00:20:33.069Z,18.50
2018-06-21T00:23:00.674Z,18.50
2018-06-21T00:25:28.197Z,18.50
2018-06-21T00:27:57.228Z,18.50
2018-06-21T00:30:24.763Z,18.50
2018-06-21T00:32:53.801Z,18.30
2018-06-21T00:35:21.327Z,18.30
2018-06-21T00:37:48.939Z,18.10
2018-06-21T00:40:16.462Z,18.20
2018-06-21T00:42:44.744Z,18.00
2018-06-21T00:45:13.160Z,18.20
2018-06-21T00:47:40.702Z,18.20
2018-06-21T00:50:09.003Z,18.10
2018-06-21T00:52:36.531Z,18.10
2018-06-21T00:55:04.817Z,18.30
2018-06-21T00:57:33.128Z,18.30
2018-06-21T01:00:00.639Z,18.30
2018-06-21T01:02:28.176Z,18.40
2018-06-21T01:04:55.718Z,18.30
2018-06-21T01:07:23.278Z,18.20
2018-06-21T01:09:50.845Z,18.10
2018-06-21T01:12:18.374Z,18.00
2018-06-21T01:14:45.902Z,17.90
2018-06-21T01:17:13.482Z,17.90
2018-06-21T01:19:41.012Z,17.90
2018-06-21T01:22:08.538Z,17.90
2018-06-21T01:24:36.825Z,18.20
2018-06-21T01:27:05.123Z,18.20
2018-06-21T01:29:32.697Z,18.20
2018-06-21T01:32:00.225Z,18.30
2018-06-21T01:34:28.549Z,18.20
2018-06-21T01:36:56.100Z,18.20
2018-06-21T01:39:23.650Z,18.40
2018-06-21T01:41:51.174Z,18.20
2018-06-21T01:44:18.689Z,18.20
2018-06-21T01:46:46.260Z,18.20
2018-06-21T01:49:13.778Z,18.30
2018-06-21T01:51:42.067Z,18.40
2018-06-21T01:54:10.403Z,18.50
2018-06-21T01:56:37.922Z,18.40
2018-06-21T01:59:06.330Z,17.90
2018-06-21T02:01:33.840Z,17.90
2018-06-21T02:04:01.351Z,17.80
2018-06-21T02:06:28.916Z,17.80
2018-06-21T02:08:56.429Z,17.80
2018-06-21T02:11:24.049Z,17.70
2018-06-21T02:13:51.607Z,17.70
2018-06-21T02:16:19.174Z,17.80
2018-06-21T02:18:46.689Z,17.90
2018-06-21T02:21:14.309Z,17.70
2018-06-21T02:23:41.843Z,17.80
2018-06-21T02:26:10.121Z,17.80
2018-06-21T02:28:38.431Z,17.70
2018-06-21T02:31:05.955Z,17.60
2018-06-21T02:33:34.272Z,17.40
2018-06-21T02:36:01.795Z,17.40
2018-06-21T02:38:30.094Z,17.30
2018-06-21T02:40:58.388Z,17.30
2018-06-21T02:43:25.909Z,17.30
2018-06-21T02:45:54.209Z,17.20
2018-06-21T02:48:22.491Z,17.20
2018-06-21T02:50:50.787Z,17.20
2018-06-21T02:53:19.067Z,17.20
2018-06-21T02:55:47.361Z,17.20
2018-06-21T02:58:14.954Z,17.10
2018-06-21T03:00:42.471Z,17.20
2018-06-21T03:03:11.184Z,17.40
2018-06-21T03:05:38.747Z,17.40
2018-06-21T03:08:06.284Z,17.40
2018-06-21T03:10:34.560Z,17.30
2018-06-21T03:13:02.841Z,17.30
2018-06-21T03:15:31.134Z,17.40
2018-06-21T03:17:59.431Z,17.50
2018-06-21T03:20:27.009Z,17.40
2018-06-21T03:22:54.565Z,17.30
2018-06-21T03:25:22.090Z,17.30
2018-06-21T03:27:50.382Z,17.10
2018-06-21T03:30:18.699Z,17.20
2018-06-21T03:32:46.226Z,17.10
2018-06-21T03:35:16.055Z,17.60
2018-06-21T03:37:43.575Z,17.60
2018-06-21T03:40:12.424Z,17.40
2018-06-21T03:42:39.947Z,17.10
2018-06-21T03:45:07.469Z,16.90
2018-06-21T03:47:35.015Z,16.80
2018-06-21T03:50:02.577Z,16.80
2018-06-21T03:52:30.094Z,16.70
2018-06-21T03:54:58.545Z,16.80
2018-06-21T03:57:26.079Z,16.80
2018-06-21T03:59:53.665Z,17.00
2018-06-21T04:02:21.176Z,17.10
2018-06-21T04:04:49.474Z,16.90
2018-06-21T04:07:17.765Z,16.70
2018-06-21T04:09:46.086Z,17.20
2018-06-21T04:12:13.594Z,17.10
2018-06-21T04:14:41.903Z,16.90
2018-06-21T04:17:09.477Z,16.90
2018-06-21T04:19:37.007Z,16.80
2018-06-21T04:22:05.311Z,16.50
2018-06-21T04:24:32.878Z,16.50
2018-06-21T04:27:00.404Z,16.40
2018-06-21T04:29:28.726Z,16.40
2018-06-21T04:31:56.266Z,16.40
2018-06-21T04:34:24.559Z,16.50
2018-06-21T04:36:52.133Z,16.50
2018-06-21T04:39:19.673Z,16.40
2018-06-21T04:41:47.958Z,16.60
2018-06-21T04:44:15.481Z,16.60
2018-06-21T04:46:43.685Z,16.50
2018-06-21T04:49:11.988Z,16.40
2018-06-21T04:51:39.671Z,16.40
2018-06-21T04:54:07.193Z,16.40
2018-06-21T04:56:35.498Z,16.60
2018-06-21T04:59:03.074Z,16.60
2018-06-21T05:01:30.608Z,16.40
2018-06-21T05:03:58.919Z,16.60
2018-06-21T05:06:26.517Z,16.60
2018-06-21T05:08:54.043Z,16.70
2018-06-21T05:11:21.573Z,16.40
2018-06-21T05:13:49.852Z,16.40
2018-06-21T05:16:18.138Z,16.80
2018-06-21T05:18:46.492Z,16.60
2018-06-21T05:21:14.025Z,16.50
2018-06-21T05:23:41.553Z,16.60
2018-06-21T05:26:09.819Z,16.00
2018-06-21T05:28:37.280Z,15.90
2018-06-21T05:31:04.733Z,16.30
2018-06-21T05:33:32.193Z,16.20
2018-06-21T05:35:59.670Z,16.10
2018-06-21T05:38:27.965Z,16.10
2018-06-21T05:40:56.202Z,15.90
2018-06-21T05:43:23.663Z,15.80
2018-06-21T05:45:51.128Z,16.10
2018-06-21T05:48:18.591Z,16.00
2018-06-21T05:50:46.044Z,16.10
2018-06-21T05:53:13.701Z,16.30
2018-06-21T05:55:41.168Z,15.80
2018-06-21T05:58:08.626Z,16.10
2018-06-21T06:00:36.083Z,16.00
2018-06-21T06:03:05.317Z,16.10
2018-06-21T06:05:32.791Z,16.20
2018-06-21T06:08:00.245Z,15.90
2018-06-21T06:10:27.704Z,16.00
2018-06-21T06:12:55.156Z,15.90
2018-06-21T06:15:22.599Z,15.70
2018-06-21T06:17:51.076Z,15.90
2018-06-21T06:20:18.530Z,15.80
2018-06-21T06:22:46.746Z,15.90
2018-06-21T06:25:15.007Z,15.90
2018-06-21T06:27:42.456Z,16.10
2018-06-21T06:30:09.893Z,15.70
2018-06-21T06:32:37.353Z,15.90
2018-06-21T06:35:06.022Z,15.70
2018-06-21T06:37:33.460Z,15.60
2018-06-21T06:40:00.927Z,15.60
2018-06-21T06:45:02.397Z,16.10
2018-06-21T06:47:30.827Z,16.20
2018-06-21T06:49:58.269Z,16.10
2018-06-21T06:52:25.721Z,16.20
2018-06-21T06:54:53.201Z,16.20
2018-06-21T06:57:20.636Z,16.10
2018-06-21T06:59:48.926Z,16.20
2018-06-21T07:02:16.838Z,16.00
2018-06-21T07:04:44.287Z,16.10
2018-06-21T07:07:11.733Z,16.00
2018-06-21T07:09:40.950Z,16.10
2018-06-21T07:12:08.392Z,16.10
2018-06-21T07:14:35.910Z,16.40
2018-06-21T07:17:03.293Z,16.30
2018-06-21T07:19:30.728Z,16.60
2018-06-21T07:21:58.969Z,16.30
2018-06-21T07:24:26.432Z,16.30
2018-06-21T07:26:53.899Z,16.40
2018-06-21T07:29:22.505Z,16.50
2018-06-21T07:31:49.960Z,16.40
2018-06-21T07:34:17.404Z,16.40
2018-06-21T07:36:45.698Z,16.40
2018-06-21T07:39:14.894Z,16.30
2018-06-21T07:41:42.349Z,16.40
2018-06-21T07:44:09.816Z,16.30
2018-06-21T07:46:37.267Z,16.10
2018-06-21T07:49:05.475Z,16.20
2018-06-21T07:51:32.939Z,16.20
2018-06-21T07:54:00.394Z,16.10
2018-06-21T07:56:27.847Z,16.10
2018-06-21T07:58:55.306Z,16.30
2018-06-21T08:01:22.750Z,16.30
2018-06-21T08:03:50.201Z,16.20
2018-06-21T08:06:17.651Z,16.20
2018-06-21T08:08:45.111Z,16.20
2018-06-21T08:11:13.329Z,16.30
2018-06-21T08:13:40.788Z,16.30
2018-06-21T08:16:08.231Z,16.20
2018-06-21T08:18:35.700Z,16.30
2018-06-21T08:21:03.138Z,16.20
2018-06-21T08:23:30.630Z,16.20
2018-06-21T08:25:58.081Z,16.10
2018-06-21T08:28:25.540Z,16.50
2018-06-21T08:30:52.972Z,16.80
2018-06-21T08:33:21.193Z,16.80
2018-06-21T08:35:49.414Z,17.00
2018-06-21T08:38:16.854Z,17.00
2018-06-21T08:40:44.308Z,16.80
2018-06-21T08:43:11.751Z,16.80
2018-06-21T08:45:39.261Z,16.80
2018-06-21T08:48:06.636Z,16.70
2018-06-21T08:50:34.099Z,16.50
2018-06-21T08:53:01.552Z,16.50
2018-06-21T08:55:28.991Z,16.60
2018-06-21T08:57:56.440Z,16.50
2018-06-21T09:00:23.912Z,16.60
2018-06-21T09:02:51.354Z,16.50
2018-06-21T09:05:18.809Z,16.20
2018-06-21T09:07:46.289Z,16.30
2018-06-21T09:10:13.745Z,16.50
2018-06-21T09:12:41.193Z,16.30
2018-06-21T09:15:08.665Z,16.30
2018-06-21T09:17:36.133Z,16.40
2018-06-21T09:20:03.592Z,16.50
2018-06-21T09:22:31.066Z,16.40
2018-06-21T09:24:58.520Z,16.50
2018-06-21T09:27:27.618Z,16.70
2018-06-21T09:29:55.492Z,16.40
2018-06-21T09:32:23.079Z,16.70
2018-06-21T09:34:50.580Z,16.90
2018-06-21T09:37:18.057Z,16.90
2018-06-21T09:40:02.498Z,17.10
2018-06-21T09:42:45.752Z,17.00
2018-06-21T09:45:13.298Z,17.10
2018-06-21T09:47:56.416Z,17.20
2018-06-21T09:50:24.637Z,16.70
2018-06-21T09:52:52.135Z,16.70
2018-06-21T09:55:19.579Z,16.90
2018-06-21T09:57:47.064Z,16.80
2018-06-21T10:00:14.582Z,16.90
2018-06-21T10:02:42.026Z,17.00
2018-06-21T10:05:09.498Z,17.10
2018-06-21T10:07:36.956Z,17.00
2018-06-21T10:10:04.383Z,16.80
2018-06-21T10:12:32.882Z,16.90
2018-06-21T10:15:01.172Z,17.00
2018-06-21T10:17:29.465Z,16.90
2018-06-21T10:19:56.996Z,16.90
2018-06-21T10:22:25.281Z,16.90
2018-06-21T10:24:53.241Z,16.90
2018-06-21T10:27:21.123Z,17.10
2018-06-21T10:29:48.606Z,17.00
2018-06-21T10:32:17.710Z,17.60
2018-06-21T10:34:45.508Z,17.70
2018-06-21T10:37:12.953Z,17.60
2018-06-21T10:39:40.407Z,17.70
2018-06-21T10:42:08.650Z,17.20
2018-06-21T10:44:36.641Z,17.20
2018-06-21T10:47:05.717Z,17.20
2018-06-21T10:49:33.168Z,17.20
2018-06-21T10:52:00.662Z,17.20
2018-06-21T10:54:28.138Z,17.00
2018-06-21T10:56:56.407Z,17.20
2018-06-21T10:59:24.433Z,17.20
2018-06-21T11:01:51.904Z,17.40
2018-06-21T11:04:19.354Z,17.30
2018-06-21T11:06:46.798Z,17.20
2018-06-21T11:09:15.095Z,17.70
2018-06-21T11:11:42.562Z,17.70
2018-06-21T11:14:10.079Z,17.40
2018-06-21T11:16:37.551Z,17.30
2018-06-21T11:19:06.510Z,17.00
2018-06-21T11:21:34.067Z,17.00
2018-06-21T11:24:01.541Z,17.20
2018-06-21T11:26:28.999Z,17.40
2018-06-21T11:28:56.500Z,17.50
2018-06-21T11:31:23.957Z,17.50
2018-06-21T11:33:51.445Z,17.60
2018-06-21T11:36:19.678Z,17.40
2018-06-21T11:38:47.138Z,17.30
2018-06-21T11:41:14.598Z,17.20
2018-06-21T11:43:42.041Z,17.10
2018-06-21T11:46:09.513Z,17.00
2018-06-21T11:48:36.972Z,17.20
2018-06-21T11:51:04.439Z,17.30
2018-06-21T11:53:31.914Z,17.20
2018-06-21T11:55:59.377Z,17.00
2018-06-21T11:58:26.856Z,17.30
2018-06-21T12:00:54.310Z,17.30
2018-06-21T12:03:21.857Z,17.20
2018-06-21T12:05:52.373Z,17.20
2018-06-21T12:08:19.852Z,17.10
2018-06-21T12:10:47.557Z,17.30
2018-06-21T12:13:15.037Z,17.60
2018-06-21T12:15:43.286Z,17.20
2018-06-21T12:18:10.768Z,17.20
2018-06-21T12:20:38.238Z,17.30
2018-06-21T12:23:05.714Z,17.50
2018-06-21T12:25:33.947Z,17.70
2018-06-21T12:28:01.414Z,17.70
2018-06-21T12:30:28.903Z,17.70
2018-06-21T12:32:56.371Z,17.50
2018-06-21T12:35:24.615Z,17.50
2018-06-21T12:37:52.077Z,17.40
2018-06-21T12:40:19.541Z,17.60
2018-06-21T12:42:47.024Z,18.00
2018-06-21T12:45:14.469Z,18.20
2018-06-21T12:47:41.935Z,17.90
2018-06-21T12:50:09.468Z,17.90
2018-06-21T12:52:37.657Z,17.10
2018-06-21T12:55:05.268Z,17.00
2018-06-21T12:57:32.745Z,17.10
2018-06-21T13:00:00.973Z,17.20
2018-06-21T13:02:28.729Z,17.10
2018-06-21T13:04:56.194Z,17.00
2018-06-21T13:07:23.653Z,17.10
2018-06-21T13:13:13.254Z,17.00
2018-06-21T13:15:40.712Z,17.30
2018-06-21T13:18:08.269Z,17.90
2018-06-21T13:20:35.739Z,17.70
2018-06-21T13:23:03.224Z,17.10
2018-06-21T13:25:31.445Z,17.60
2018-06-21T13:27:58.930Z,17.60
2018-06-21T13:30:27.399Z,17.50
2018-06-21T13:32:54.874Z,17.00
2018-06-21T13:35:22.439Z,17.30
2018-06-21T13:37:49.913Z,17.70
2018-06-21T13:40:17.389Z,17.80
2018-06-21T13:42:44.861Z,18.30
2018-06-21T13:45:13.167Z,17.90
2018-06-21T13:47:40.626Z,17.90
2018-06-21T13:50:08.103Z,17.60
2018-06-21T13:52:35.583Z,17.30
2018-06-21T13:55:03.089Z,17.90
2018-06-21T13:57:30.575Z,17.40
2018-06-21T13:59:58.036Z,17.30
2018-06-21T14:02:25.538Z,17.30
2018-06-21T14:04:52.988Z,17.60
2018-06-21T14:07:20.459Z,17.60
2018-06-21T14:09:47.948Z,17.40
2018-06-21T14:12:16.175Z,17.10
2018-06-21T14:14:43.693Z,17.10
2018-06-21T14:17:11.125Z,17.50
2018-06-21T14:19:38.596Z,17.80
2018-06-21T14:22:06.164Z,18.10
2018-06-21T14:24:33.640Z,17.80
2018-06-21T14:27:01.099Z,18.00
2018-06-21T14:29:28.559Z,18.40
2018-06-21T14:31:56.020Z,18.50
2018-06-21T14:34:23.571Z,18.50
2018-06-21T14:36:51.244Z,18.30
2018-06-21T14:39:18.805Z,17.80
2018-06-21T14:41:46.369Z,17.30
2018-06-21T14:44:13.820Z,17.40
2018-06-21T14:46:41.292Z,18.10
2018-06-21T14:49:08.868Z,18.10
2018-06-21T14:51:36.332Z,18.60
2018-06-21T14:54:03.883Z,18.70
2018-06-21T14:56:31.361Z,18.30
2018-06-21T14:58:58.903Z,18.10
2018-06-21T15:01:26.357Z,18.00
2018-06-21T15:03:53.842Z,18.00
2018-06-21T15:06:21.408Z,17.80
2018-06-21T15:08:48.902Z,18.20
2018-06-21T15:11:16.351Z,18.10
2018-06-21T15:13:44.596Z,17.90
2018-06-21T15:16:12.070Z,17.90
2018-06-21T15:18:39.543Z,17.80
2018-06-21T15:21:07.791Z,17.80
2018-06-21T15:23:35.279Z,17.80
2018-06-21T15:26:02.828Z,17.30
2018-06-21T15:28:30.415Z,17.20
2018-06-21T15:30:57.957Z,17.60
2018-06-21T15:33:25.519Z,17.70
2018-06-21T15:35:52.996Z,17.60
2018-06-21T15:38:20.577Z,17.60
2018-06-21T15:40:48.800Z,17.60
2018-06-21T15:43:18.278Z,17.60
2018-06-21T15:45:46.501Z,17.40
2018-06-21T15:48:13.977Z,17.40
2018-06-21T15:50:41.478Z,17.30
2018-06-21T15:53:09.003Z,18.00
2018-06-21T15:55:36.481Z,18.10
2018-06-21T15:58:04.047Z,18.10
2018-06-21T16:00:33.026Z,17.70
2018-06-21T16:03:00.540Z,17.70
2018-06-21T16:05:28.010Z,17.60
2018-06-21T16:07:55.471Z,17.20
2018-06-21T16:10:22.928Z,17.30
2018-06-21T16:12:50.387Z,17.10
2018-06-21T16:15:17.851Z,18.00
2018-06-21T16:17:45.308Z,17.70
2018-06-21T16:20:12.809Z,17.80
2018-06-21T16:22:40.271Z,17.80
2018-06-21T16:25:07.733Z,17.90
2018-06-21T16:27:35.982Z,18.00
2018-06-21T16:30:03.446Z,17.90
2018-06-21T16:32:30.912Z,17.70
2018-06-21T16:34:58.369Z,17.40
2018-06-21T16:37:25.828Z,17.00
2018-06-21T16:39:53.303Z,17.20
2018-06-21T16:42:20.780Z,17.50
2018-06-21T16:44:48.244Z,17.00
2018-06-21T16:47:15.707Z,16.30
2018-06-21T16:49:43.166Z,15.90
2018-06-21T16:52:10.753Z,16.10
2018-06-21T16:54:38.545Z,16.00
2018-06-21T16:57:06.784Z,16.90
2018-06-21T16:59:34.242Z,16.90
2018-06-21T17:02:01.700Z,17.10
2018-06-21T17:04:29.192Z,16.70
2018-06-21T17:06:58.159Z,16.70
2018-06-21T17:09:25.671Z,16.70
2018-06-21T17:11:54.031Z,16.60
2018-06-21T17:14:21.509Z,16.50
2018-06-21T17:16:49.764Z,16.80
2018-06-21T17:19:17.328Z,16.70
2018-06-21T17:21:44.780Z,17.10
2018-06-21T17:24:12.283Z,16.70
2018-06-21T17:26:40.519Z,16.20
2018-06-21T17:29:08.096Z,16.10
2018-06-21T17:34:04.547Z,16.30
2018-06-21T17:36:32.015Z,16.10
2018-06-21T17:38:59.464Z,16.30
2018-06-21T17:41:26.923Z,16.10
2018-06-21T17:43:54.416Z,17.30
2018-06-21T17:46:22.646Z,16.20
2018-06-21T17:48:50.131Z,16.20
2018-06-21T17:51:17.616Z,16.00
2018-06-21T17:53:45.083Z,16.10
2018-06-21T17:56:13.305Z,16.20
2018-06-21T17:58:40.808Z,16.20
2018-06-21T18:01:08.620Z,16.60
2018-06-21T18:03:36.839Z,16.80
2018-06-21T18:06:04.344Z,16.80
2018-06-21T18:08:32.612Z,17.00
2018-06-21T18:11:00.078Z,16.90
2018-06-21T18:13:29.117Z,15.90
2018-06-21T18:15:56.583Z,15.90
2018-06-21T18:18:24.044Z,16.30
2018-06-21T18:20:51.500Z,16.80
2018-06-21T18:23:18.975Z,16.70
2018-06-21T18:25:46.476Z,16.40
2018-06-21T18:28:14.051Z,16.30
2018-06-21T18:30:42.295Z,16.80
2018-06-21T18:33:09.761Z,16.70
2018-06-21T18:35:37.237Z,16.00
2018-06-21T18:38:04.697Z,15.80
2018-06-21T18:40:32.274Z,15.90
2018-06-21T18:42:59.736Z,16.00
2018-06-21T18:45:27.207Z,16.00
2018-06-21T18:47:55.438Z,16.10
2018-06-21T18:50:22.884Z,16.10
2018-06-21T18:52:50.410Z,16.50
2018-06-21T18:55:17.830Z,15.80
2018-06-21T18:57:45.313Z,15.40
2018-06-21T19:00:12.768Z,15.40
2018-06-21T19:02:40.244Z,15.70
2018-06-21T19:05:07.703Z,15.10
2018-06-21T19:07:35.219Z,15.60
2018-06-21T19:10:18.494Z,15.90
2018-06-21T19:12:45.951Z,15.40
2018-06-21T19:15:13.408Z,15.50
2018-06-21T19:17:40.885Z,15.40
2018-06-21T19:20:08.344Z,15.40
2018-06-21T19:22:35.804Z,15.70
2018-06-21T19:25:03.357Z,15.90
2018-06-21T19:27:30.922Z,15.40
2018-06-21T19:29:58.485Z,15.90
2018-06-21T19:32:25.930Z,16.90
2018-06-21T19:34:53.393Z,16.40
2018-06-21T19:37:20.863Z,16.00
2018-06-21T19:39:48.357Z,15.60
2018-06-21T19:42:15.897Z,15.70
2018-06-21T19:44:43.362Z,15.60
2018-06-21T19:47:10.807Z,15.80
2018-06-21T19:49:38.286Z,15.70
2018-06-21T19:52:05.851Z,15.20
2018-06-21T19:54:34.076Z,15.80
2018-06-21T19:57:01.531Z,15.80
2018-06-21T19:59:28.988Z,15.60
2018-06-21T20:01:57.212Z,15.50
2018-06-21T20:04:24.679Z,15.50
2018-06-21T20:06:52.170Z,15.90
2018-06-21T20:09:19.619Z,15.40
2018-06-21T20:11:47.093Z,15.40
2018-06-21T20:14:15.352Z,15.20
2018-06-21T20:16:42.827Z,15.20
2018-06-21T20:19:10.416Z,15.20
2018-06-21T20:21:38.639Z,15.40
2018-06-21T20:24:06.110Z,15.40
2018-06-21T20:26:33.563Z,15.60
2018-06-21T20:29:02.038Z,15.70
2018-06-21T20:31:29.527Z,15.50
2018-06-21T20:33:56.987Z,15.50
2018-06-21T20:36:24.431Z,15.60
2018-06-21T20:38:51.923Z,15.60
2018-06-21T20:41:20.425Z,15.30
2018-06-21T20:43:47.901Z,15.50
2018-06-21T20:46:16.153Z,15.30
2018-06-21T20:48:43.637Z,15.30
2018-06-21T20:51:11.887Z,15.50
2018-06-21T20:53:39.363Z,15.50
2018-06-21T20:56:06.921Z,15.30
2018-06-21T20:58:34.412Z,15.30
2018-06-21T21:01:02.631Z,15.00
2018-06-21T21:03:30.206Z,15.00
2018-06-21T21:05:57.653Z,15.50
2018-06-21T21:08:25.099Z,15.10
2018-06-21T21:10:52.579Z,15.00
2018-06-21T21:13:20.074Z,14.90
2018-06-21T21:15:47.567Z,14.70
2018-06-21T21:18:15.803Z,15.00
2018-06-21T21:20:43.398Z,15.00
2018-06-21T21:23:10.914Z,15.50
2018-06-21T21:25:39.104Z,15.20
2018-06-21T21:28:06.564Z,15.10
2018-06-21T21:30:34.048Z,15.00
2018-06-21T21:33:01.496Z,15.00
2018-06-21T21:35:30.229Z,15.10
2018-06-21T21:37:58.454Z,15.00
2018-06-21T21:40:25.911Z,15.00
2018-06-21T21:42:53.399Z,15.10
2018-06-21T21:45:20.859Z,15.30
2018-06-21T21:47:48.414Z,14.90
2018-06-21T21:50:15.875Z,14.80
2018-06-21T21:52:43.359Z,14.60
2018-06-21T21:55:10.817Z,14.90
2018-06-21T21:57:38.279Z,15.10
2018-06-21T22:00:05.856Z,15.30
2018-06-21T22:02:33.392Z,15.20
2018-06-21T22:05:00.852Z,15.30
2018-06-21T22:07:28.325Z,15.30
2018-06-21T22:09:55.881Z,15.10
2018-06-21T22:12:23.478Z,15.10
2018-06-21T22:14:51.710Z,15.20
2018-06-21T22:17:19.291Z,15.20
2018-06-21T22:19:46.756Z,15.00
2018-06-21T22:22:14.223Z,15.00
2018-06-21T22:24:41.690Z,15.20
2018-06-21T22:27:09.215Z,15.10
2018-06-21T22:29:36.712Z,15.20
2018-06-21T22:32:04.183Z,14.80
2018-06-21T22:34:31.647Z,15.00
2018-06-21T22:36:59.868Z,15.20
2018-06-21T22:39:27.380Z,15.10
2018-06-21T22:41:55.358Z,15.30
2018-06-21T22:44:22.819Z,15.30
2018-06-21T22:46:50.364Z,15.10
2018-06-21T22:49:17.825Z,15.20
2018-06-21T22:51:45.389Z,15.10
2018-06-21T22:54:12.950Z,14.80
2018-06-21T22:56:40.427Z,15.00
2018-06-21T22:59:07.991Z,14.70
2018-06-21T23:01:35.449Z,15.10
2018-06-21T23:04:03.009Z,15.00
2018-06-21T23:06:30.563Z,14.80
2018-06-21T23:08:58.023Z,14.70
2018-06-21T23:11:25.486Z,15.00
2018-06-21T23:13:52.963Z,14.80
2018-06-21T23:16:20.408Z,14.80
2018-06-21T23:18:59.811Z,14.70
2018-06-21T23:21:27.260Z,14.80
2018-06-21T23:23:54.739Z,14.80
2018-06-21T23:26:22.271Z,14.70
2018-06-21T23:28:50.516Z,14.70
2018-06-21T23:31:17.959Z,14.70
2018-06-21T23:33:45.420Z,14.80
2018-06-21T23:36:12.884Z,14.70
2018-06-21T23:38:40.356Z,14.90
2018-06-21T23:41:07.832Z,14.90
2018-06-21T23:43:35.278Z,14.80
2018-06-21T23:46:02.748Z,14.80
2018-06-21T23:48:30.206Z,14.90
2018-06-21T23:50:57.680Z,14.50
2018-06-21T23:53:26.075Z,14.70
2018-06-21T23:55:53.619Z,14.40
2018-06-21T23:58:21.168Z,14.50
